sensor_id;sensor_type;location;lat;lon;timestamp;P1;durP1;ratioP1;P2;durP2;ratioP2
9783;SDS011;4931;44.874;-1.092;2023-04-16T00:00:02;24.35;;;7.40;;
9783;SDS011;4931;44.874;-1.092;2023-04-16T00:02:29;24.90;;;7.88;;
9783;SDS011;4931;44.874;-1.092;2023-04-16T00:04:54;23.38;;;8.05;;
9783;SDS011;4931;44.874;-1.092;2023-04-16T00:07:20;22.10;;;7.68;;
9783;SDS011;4931;44.874;-1.092;2023-04-16T00:09:45;24.58;;;9.45;;
9783;SDS011;4931;44.874;-1.092;2023-04-16T00:12:11;23.33;;;8.00;;
9783;SDS011;4931;44.874;-1.092;2023-04-16T00:14:36;19.42;;;5.68;;
9783;SDS011;4931;44.874;-1.092;2023-04-16T00:17:02;18.45;;;5.90;;
9783;SDS011;4931;44.874;-1.092;2023-04-16T00:19:27;23.25;;;5.68;;
9783;SDS011;4931;44.874;-1.092;2023-04-16T00:21:53;19.77;;;5.80;;
9783;SDS011;4931;44.874;-1.092;2023-04-16T00:24:18;19.70;;;5.88;;
9783;SDS011;4931;44.874;-1.092;2023-04-16T00:26:44;23.95;;;6.45;;
9783;SDS011;4931;44.874;-1.092;2023-04-16T00:29:10;25.05;;;8.75;;
9783;SDS011;4931;44.874;-1.092;2023-04-16T00:31:36;38.05;;;12.10;;
9783;SDS011;4931;44.874;-1.092;2023-04-16T00:34:02;50.95;;;13.55;;
9783;SDS011;4931;44.874;-1.092;2023-04-16T00:36:27;44.28;;;14.02;;
9783;SDS011;4931;44.874;-1.092;2023-04-16T00:38:53;42.25;;;15.18;;
9783;SDS011;4931;44.874;-1.092;2023-04-16T00:41:20;38.28;;;12.38;;
9783;SDS011;4931;44.874;-1.092;2023-04-16T00:43:47;35.97;;;11.75;;
9783;SDS011;4931;44.874;-1.092;2023-04-16T00:46:12;39.85;;;13.50;;
9783;SDS011;4931;44.874;-1.092;2023-04-16T00:48:39;40.47;;;14.57;;
9783;SDS011;4931;44.874;-1.092;2023-04-16T00:51:07;36.38;;;13.35;;
9783;SDS011;4931;44.874;-1.092;2023-04-16T00:53:33;35.20;;;12.73;;
9783;SDS011;4931;44.874;-1.092;2023-04-16T00:55:59;39.15;;;14.30;;
9783;SDS011;4931;44.874;-1.092;2023-04-16T00:58:26;36.17;;;14.23;;
9783;SDS011;4931;44.874;-1.092;2023-04-16T01:00:53;44.30;;;13.45;;
9783;SDS011;4931;44.874;-1.092;2023-04-16T01:03:19;37.60;;;12.50;;
9783;SDS011;4931;44.874;-1.092;2023-04-16T01:05:44;25.58;;;11.48;;
9783;SDS011;4931;44.874;-1.092;2023-04-16T01:08:17;25.95;;;11.13;;
9783;SDS011;4931;44.874;-1.092;2023-04-16T01:10:43;24.33;;;10.65;;
9783;SDS011;4931;44.874;-1.092;2023-04-16T01:13:10;18.65;;;8.77;;
9783;SDS011;4931;44.874;-1.092;2023-04-16T01:15:35;20.45;;;9.85;;
9783;SDS011;4931;44.874;-1.092;2023-04-16T01:18:01;22.27;;;8.90;;
9783;SDS011;4931;44.874;-1.092;2023-04-16T01:20:27;26.05;;;7.95;;
9783;SDS011;4931;44.874;-1.092;2023-04-16T01:22:53;16.73;;;6.72;;
9783;SDS011;4931;44.874;-1.092;2023-04-16T01:25:19;18.83;;;6.43;;
9783;SDS011;4931;44.874;-1.092;2023-04-16T01:27:44;20.00;;;7.38;;
9783;SDS011;4931;44.874;-1.092;2023-04-16T01:30:13;25.05;;;7.00;;
9783;SDS011;4931;44.874;-1.092;2023-04-16T01:32:39;21.83;;;7.40;;
9783;SDS011;4931;44.874;-1.092;2023-04-16T01:35:05;15.65;;;6.43;;
9783;SDS011;4931;44.874;-1.092;2023-04-16T01:37:31;20.67;;;5.38;;
9783;SDS011;4931;44.874;-1.092;2023-04-16T01:39:56;21.77;;;5.80;;
9783;SDS011;4931;44.874;-1.092;2023-04-16T01:42:22;19.50;;;4.95;;
9783;SDS011;4931;44.874;-1.092;2023-04-16T01:44:47;19.38;;;5.30;;
9783;SDS011;4931;44.874;-1.092;2023-04-16T01:47:12;16.30;;;5.80;;
9783;SDS011;4931;44.874;-1.092;2023-04-16T01:49:38;25.25;;;6.63;;
9783;SDS011;4931;44.874;-1.092;2023-04-16T01:52:04;18.77;;;7.03;;
9783;SDS011;4931;44.874;-1.092;2023-04-16T01:54:29;24.60;;;7.80;;
9783;SDS011;4931;44.874;-1.092;2023-04-16T01:56:55;21.58;;;6.25;;
9783;SDS011;4931;44.874;-1.092;2023-04-16T01:59:21;14.77;;;5.60;;
9783;SDS011;4931;44.874;-1.092;2023-04-16T02:01:46;20.20;;;6.50;;
9783;SDS011;4931;44.874;-1.092;2023-04-16T02:04:12;18.08;;;7.00;;
9783;SDS011;4931;44.874;-1.092;2023-04-16T02:06:37;20.25;;;6.88;;
9783;SDS011;4931;44.874;-1.092;2023-04-16T02:09:03;19.13;;;6.68;;
9783;SDS011;4931;44.874;-1.092;2023-04-16T02:11:28;15.98;;;6.63;;
9783;SDS011;4931;44.874;-1.092;2023-04-16T02:13:54;18.17;;;6.57;;
9783;SDS011;4931;44.874;-1.092;2023-04-16T02:16:19;17.35;;;7.03;;
9783;SDS011;4931;44.874;-1.092;2023-04-16T02:18:45;18.10;;;7.05;;
9783;SDS011;4931;44.874;-1.092;2023-04-16T02:21:10;17.30;;;7.13;;
9783;SDS011;4931;44.874;-1.092;2023-04-16T02:23:36;19.48;;;6.90;;
9783;SDS011;4931;44.874;-1.092;2023-04-16T02:26:04;17.67;;;6.90;;
9783;SDS011;4931;44.874;-1.092;2023-04-16T02:28:31;17.10;;;7.03;;
9783;SDS011;4931;44.874;-1.092;2023-04-16T02:30:56;18.13;;;7.75;;
9783;SDS011;4931;44.874;-1.092;2023-04-16T02:33:22;22.08;;;7.82;;
9783;SDS011;4931;44.874;-1.092;2023-04-16T02:35:50;26.50;;;9.40;;
9783;SDS011;4931;44.874;-1.092;2023-04-16T02:38:15;20.27;;;10.23;;
9783;SDS011;4931;44.874;-1.092;2023-04-16T02:40:40;23.33;;;10.85;;
9783;SDS011;4931;44.874;-1.092;2023-04-16T02:43:06;29.15;;;11.80;;
9783;SDS011;4931;44.874;-1.092;2023-04-16T02:45:31;25.02;;;11.60;;
9783;SDS011;4931;44.874;-1.092;2023-04-16T02:47:57;27.73;;;12.63;;
9783;SDS011;4931;44.874;-1.092;2023-04-16T02:50:23;21.60;;;10.90;;
9783;SDS011;4931;44.874;-1.092;2023-04-16T02:52:49;26.52;;;11.23;;
9783;SDS011;4931;44.874;-1.092;2023-04-16T02:55:15;23.30;;;9.75;;
9783;SDS011;4931;44.874;-1.092;2023-04-16T02:57:41;20.58;;;9.00;;
9783;SDS011;4931;44.874;-1.092;2023-04-16T03:00:06;21.73;;;8.40;;
9783;SDS011;4931;44.874;-1.092;2023-04-16T03:02:33;20.42;;;8.25;;
9783;SDS011;4931;44.874;-1.092;2023-04-16T03:04:58;20.35;;;8.13;;
9783;SDS011;4931;44.874;-1.092;2023-04-16T03:07:24;23.13;;;8.05;;
9783;SDS011;4931;44.874;-1.092;2023-04-16T03:09:50;26.33;;;8.63;;
9783;SDS011;4931;44.874;-1.092;2023-04-16T03:12:15;16.52;;;7.50;;
9783;SDS011;4931;44.874;-1.092;2023-04-16T03:14:41;15.90;;;6.97;;
9783;SDS011;4931;44.874;-1.092;2023-04-16T03:17:06;18.30;;;6.93;;
9783;SDS011;4931;44.874;-1.092;2023-04-16T03:19:31;16.42;;;6.53;;
9783;SDS011;4931;44.874;-1.092;2023-04-16T03:21:57;25.20;;;7.35;;
9783;SDS011;4931;44.874;-1.092;2023-04-16T03:24:22;16.88;;;6.30;;
9783;SDS011;4931;44.874;-1.092;2023-04-16T03:26:48;18.63;;;6.68;;
9783;SDS011;4931;44.874;-1.092;2023-04-16T03:29:14;15.27;;;7.15;;
9783;SDS011;4931;44.874;-1.092;2023-04-16T03:31:39;14.60;;;5.97;;
9783;SDS011;4931;44.874;-1.092;2023-04-16T03:34:05;19.67;;;5.72;;
9783;SDS011;4931;44.874;-1.092;2023-04-16T03:36:30;14.85;;;5.53;;
9783;SDS011;4931;44.874;-1.092;2023-04-16T03:38:56;14.43;;;6.05;;
9783;SDS011;4931;44.874;-1.092;2023-04-16T03:41:22;12.50;;;5.35;;
9783;SDS011;4931;44.874;-1.092;2023-04-16T03:43:47;12.32;;;5.75;;
9783;SDS011;4931;44.874;-1.092;2023-04-16T03:46:13;16.20;;;5.55;;
9783;SDS011;4931;44.874;-1.092;2023-04-16T03:48:38;12.30;;;5.03;;
9783;SDS011;4931;44.874;-1.092;2023-04-16T03:51:03;12.63;;;4.70;;
9783;SDS011;4931;44.874;-1.092;2023-04-16T03:53:29;14.80;;;4.75;;
9783;SDS011;4931;44.874;-1.092;2023-04-16T03:55:54;16.10;;;5.38;;
9783;SDS011;4931;44.874;-1.092;2023-04-16T03:58:20;16.10;;;5.32;;
9783;SDS011;4931;44.874;-1.092;2023-04-16T04:00:45;14.07;;;5.28;;
9783;SDS011;4931;44.874;-1.092;2023-04-16T04:03:11;16.15;;;5.32;;
9783;SDS011;4931;44.874;-1.092;2023-04-16T04:05:40;15.25;;;5.47;;
9783;SDS011;4931;44.874;-1.092;2023-04-16T04:08:06;16.02;;;5.53;;
9783;SDS011;4931;44.874;-1.092;2023-04-16T04:10:32;11.55;;;4.97;;
9783;SDS011;4931;44.874;-1.092;2023-04-16T04:13:01;9.77;;;3.90;;
9783;SDS011;4931;44.874;-1.092;2023-04-16T04:15:28;14.32;;;3.95;;
9783;SDS011;4931;44.874;-1.092;2023-04-16T04:17:54;19.15;;;3.95;;
9783;SDS011;4931;44.874;-1.092;2023-04-16T04:20:20;14.77;;;3.80;;
9783;SDS011;4931;44.874;-1.092;2023-04-16T04:22:46;10.13;;;3.38;;
9783;SDS011;4931;44.874;-1.092;2023-04-16T04:25:11;11.63;;;3.40;;
9783;SDS011;4931;44.874;-1.092;2023-04-16T04:27:37;10.00;;;3.42;;
9783;SDS011;4931;44.874;-1.092;2023-04-16T04:30:03;13.23;;;3.20;;
9783;SDS011;4931;44.874;-1.092;2023-04-16T04:32:29;11.77;;;3.10;;
9783;SDS011;4931;44.874;-1.092;2023-04-16T04:34:55;9.95;;;3.15;;
9783;SDS011;4931;44.874;-1.092;2023-04-16T04:37:21;8.88;;;2.75;;
9783;SDS011;4931;44.874;-1.092;2023-04-16T04:39:47;10.82;;;2.83;;
9783;SDS011;4931;44.874;-1.092;2023-04-16T04:42:12;8.45;;;2.58;;
9783;SDS011;4931;44.874;-1.092;2023-04-16T04:44:38;12.07;;;3.08;;
9783;SDS011;4931;44.874;-1.092;2023-04-16T04:47:03;14.00;;;3.28;;
9783;SDS011;4931;44.874;-1.092;2023-04-16T04:49:29;11.65;;;3.47;;
9783;SDS011;4931;44.874;-1.092;2023-04-16T04:51:55;12.77;;;3.50;;
9783;SDS011;4931;44.874;-1.092;2023-04-16T04:54:20;11.18;;;3.47;;
9783;SDS011;4931;44.874;-1.092;2023-04-16T04:56:46;10.45;;;3.85;;
9783;SDS011;4931;44.874;-1.092;2023-04-16T04:59:11;13.35;;;6.25;;
9783;SDS011;4931;44.874;-1.092;2023-04-16T05:01:37;9.63;;;3.92;;
9783;SDS011;4931;44.874;-1.092;2023-04-16T05:04:03;19.63;;;4.85;;
9783;SDS011;4931;44.874;-1.092;2023-04-16T05:06:28;10.73;;;3.50;;
9783;SDS011;4931;44.874;-1.092;2023-04-16T05:08:55;11.98;;;3.30;;
9783;SDS011;4931;44.874;-1.092;2023-04-16T05:11:20;12.55;;;2.95;;
9783;SDS011;4931;44.874;-1.092;2023-04-16T05:13:46;14.90;;;3.47;;
9783;SDS011;4931;44.874;-1.092;2023-04-16T05:16:11;13.98;;;3.47;;
9783;SDS011;4931;44.874;-1.092;2023-04-16T05:18:37;18.50;;;4.22;;
9783;SDS011;4931;44.874;-1.092;2023-04-16T05:21:02;26.17;;;5.30;;
9783;SDS011;4931;44.874;-1.092;2023-04-16T05:23:28;12.77;;;4.05;;
9783;SDS011;4931;44.874;-1.092;2023-04-16T05:25:54;18.40;;;4.30;;
9783;SDS011;4931;44.874;-1.092;2023-04-16T05:28:19;33.97;;;6.82;;
9783;SDS011;4931;44.874;-1.092;2023-04-16T05:30:45;33.72;;;9.55;;
9783;SDS011;4931;44.874;-1.092;2023-04-16T05:33:10;41.17;;;16.23;;
9783;SDS011;4931;44.874;-1.092;2023-04-16T05:35:36;53.30;;;24.88;;
9783;SDS011;4931;44.874;-1.092;2023-04-16T05:38:01;36.28;;;11.65;;
9783;SDS011;4931;44.874;-1.092;2023-04-16T05:40:28;24.08;;;6.75;;
9783;SDS011;4931;44.874;-1.092;2023-04-16T05:42:54;19.55;;;6.25;;
9783;SDS011;4931;44.874;-1.092;2023-04-16T05:45:19;20.52;;;5.13;;
9783;SDS011;4931;44.874;-1.092;2023-04-16T05:47:45;18.27;;;5.45;;
9783;SDS011;4931;44.874;-1.092;2023-04-16T05:50:10;16.95;;;5.72;;
9783;SDS011;4931;44.874;-1.092;2023-04-16T05:52:36;19.45;;;5.85;;
9783;SDS011;4931;44.874;-1.092;2023-04-16T05:55:02;22.35;;;6.18;;
9783;SDS011;4931;44.874;-1.092;2023-04-16T05:57:27;23.48;;;5.50;;
9783;SDS011;4931;44.874;-1.092;2023-04-16T05:59:53;19.80;;;6.10;;
9783;SDS011;4931;44.874;-1.092;2023-04-16T06:02:19;31.05;;;7.45;;
9783;SDS011;4931;44.874;-1.092;2023-04-16T06:04:44;31.05;;;7.03;;
9783;SDS011;4931;44.874;-1.092;2023-04-16T06:07:10;31.10;;;7.82;;
9783;SDS011;4931;44.874;-1.092;2023-04-16T06:09:36;28.77;;;7.10;;
9783;SDS011;4931;44.874;-1.092;2023-04-16T06:12:01;24.83;;;7.43;;
9783;SDS011;4931;44.874;-1.092;2023-04-16T06:14:27;22.85;;;7.50;;
9783;SDS011;4931;44.874;-1.092;2023-04-16T06:16:52;23.08;;;7.95;;
9783;SDS011;4931;44.874;-1.092;2023-04-16T06:19:18;25.33;;;8.75;;
9783;SDS011;4931;44.874;-1.092;2023-04-16T06:21:43;32.72;;;10.80;;
9783;SDS011;4931;44.874;-1.092;2023-04-16T06:24:09;30.80;;;11.32;;
9783;SDS011;4931;44.874;-1.092;2023-04-16T06:26:35;27.90;;;10.02;;
9783;SDS011;4931;44.874;-1.092;2023-04-16T06:29:00;27.92;;;9.52;;
9783;SDS011;4931;44.874;-1.092;2023-04-16T06:31:26;21.17;;;8.63;;
9783;SDS011;4931;44.874;-1.092;2023-04-16T06:33:52;19.73;;;8.93;;
9783;SDS011;4931;44.874;-1.092;2023-04-16T06:36:17;21.60;;;8.55;;
9783;SDS011;4931;44.874;-1.092;2023-04-16T06:38:43;23.02;;;8.45;;
9783;SDS011;4931;44.874;-1.092;2023-04-16T06:41:08;30.27;;;12.82;;
9783;SDS011;4931;44.874;-1.092;2023-04-16T06:43:34;29.10;;;11.68;;
9783;SDS011;4931;44.874;-1.092;2023-04-16T06:46:00;31.48;;;14.55;;
9783;SDS011;4931;44.874;-1.092;2023-04-16T06:48:25;18.40;;;8.90;;
9783;SDS011;4931;44.874;-1.092;2023-04-16T06:50:51;25.75;;;10.45;;
9783;SDS011;4931;44.874;-1.092;2023-04-16T06:53:17;24.33;;;8.55;;
9783;SDS011;4931;44.874;-1.092;2023-04-16T06:55:42;18.35;;;8.25;;
9783;SDS011;4931;44.874;-1.092;2023-04-16T06:58:08;24.50;;;8.93;;
9783;SDS011;4931;44.874;-1.092;2023-04-16T07:00:33;20.35;;;8.07;;
9783;SDS011;4931;44.874;-1.092;2023-04-16T07:02:59;16.30;;;7.93;;
9783;SDS011;4931;44.874;-1.092;2023-04-16T07:05:25;22.30;;;11.07;;
9783;SDS011;4931;44.874;-1.092;2023-04-16T07:07:51;17.85;;;7.07;;
9783;SDS011;4931;44.874;-1.092;2023-04-16T07:10:16;16.70;;;7.25;;
9783;SDS011;4931;44.874;-1.092;2023-04-16T07:12:42;15.45;;;7.97;;
9783;SDS011;4931;44.874;-1.092;2023-04-16T07:15:08;13.93;;;6.90;;
9783;SDS011;4931;44.874;-1.092;2023-04-16T07:17:34;22.05;;;9.27;;
9783;SDS011;4931;44.874;-1.092;2023-04-16T07:19:59;16.90;;;9.00;;
9783;SDS011;4931;44.874;-1.092;2023-04-16T07:22:25;22.23;;;10.13;;
9783;SDS011;4931;44.874;-1.092;2023-04-16T07:24:50;33.58;;;18.88;;
9783;SDS011;4931;44.874;-1.092;2023-04-16T07:27:16;19.98;;;12.02;;
9783;SDS011;4931;44.874;-1.092;2023-04-16T07:29:41;16.25;;;6.63;;
9783;SDS011;4931;44.874;-1.092;2023-04-16T07:32:10;12.13;;;6.25;;
9783;SDS011;4931;44.874;-1.092;2023-04-16T07:34:36;10.63;;;4.80;;
9783;SDS011;4931;44.874;-1.092;2023-04-16T07:37:01;9.98;;;4.38;;
9783;SDS011;4931;44.874;-1.092;2023-04-16T07:39:27;7.55;;;3.25;;
9783;SDS011;4931;44.874;-1.092;2023-04-16T07:41:52;9.18;;;3.20;;
9783;SDS011;4931;44.874;-1.092;2023-04-16T07:44:18;10.68;;;3.67;;
9783;SDS011;4931;44.874;-1.092;2023-04-16T07:46:43;9.82;;;3.28;;
9783;SDS011;4931;44.874;-1.092;2023-04-16T07:49:09;7.55;;;3.85;;
9783;SDS011;4931;44.874;-1.092;2023-04-16T07:51:34;11.68;;;3.80;;
9783;SDS011;4931;44.874;-1.092;2023-04-16T07:54:00;8.23;;;2.92;;
9783;SDS011;4931;44.874;-1.092;2023-04-16T07:56:25;10.00;;;3.03;;
9783;SDS011;4931;44.874;-1.092;2023-04-16T07:58:51;7.55;;;3.05;;
9783;SDS011;4931;44.874;-1.092;2023-04-16T08:01:17;8.43;;;2.78;;
9783;SDS011;4931;44.874;-1.092;2023-04-16T08:03:42;5.50;;;2.45;;
9783;SDS011;4931;44.874;-1.092;2023-04-16T08:06:08;7.38;;;2.40;;
9783;SDS011;4931;44.874;-1.092;2023-04-16T08:08:33;6.85;;;2.50;;
9783;SDS011;4931;44.874;-1.092;2023-04-16T08:10:59;7.35;;;2.88;;
9783;SDS011;4931;44.874;-1.092;2023-04-16T08:13:24;7.03;;;2.50;;
9783;SDS011;4931;44.874;-1.092;2023-04-16T08:15:50;6.70;;;2.85;;
9783;SDS011;4931;44.874;-1.092;2023-04-16T08:18:15;6.20;;;2.45;;
9783;SDS011;4931;44.874;-1.092;2023-04-16T08:20:41;5.43;;;2.50;;
9783;SDS011;4931;44.874;-1.092;2023-04-16T08:23:07;12.20;;;2.47;;
9783;SDS011;4931;44.874;-1.092;2023-04-16T08:25:32;4.63;;;1.92;;
9783;SDS011;4931;44.874;-1.092;2023-04-16T08:27:58;4.75;;;2.05;;
9783;SDS011;4931;44.874;-1.092;2023-04-16T08:30:24;8.32;;;1.98;;
9783;SDS011;4931;44.874;-1.092;2023-04-16T08:32:49;6.63;;;2.28;;
9783;SDS011;4931;44.874;-1.092;2023-04-16T08:35:15;5.55;;;2.00;;
9783;SDS011;4931;44.874;-1.092;2023-04-16T08:37:41;7.88;;;2.42;;
9783;SDS011;4931;44.874;-1.092;2023-04-16T08:40:06;5.38;;;1.95;;
9783;SDS011;4931;44.874;-1.092;2023-04-16T08:42:33;5.90;;;2.10;;
9783;SDS011;4931;44.874;-1.092;2023-04-16T08:45:09;4.82;;;2.03;;
9783;SDS011;4931;44.874;-1.092;2023-04-16T08:47:45;3.80;;;2.20;;
9783;SDS011;4931;44.874;-1.092;2023-04-16T08:52:42;3.33;;;1.77;;
9783;SDS011;4931;44.874;-1.092;2023-04-16T08:55:15;6.35;;;2.10;;
9783;SDS011;4931;44.874;-1.092;2023-04-16T08:57:43;5.18;;;2.00;;
9783;SDS011;4931;44.874;-1.092;2023-04-16T09:00:12;3.80;;;1.73;;
9783;SDS011;4931;44.874;-1.092;2023-04-16T09:02:39;2.33;;;1.60;;
9783;SDS011;4931;44.874;-1.092;2023-04-16T09:05:06;3.42;;;1.50;;
9783;SDS011;4931;44.874;-1.092;2023-04-16T09:07:36;4.15;;;1.50;;
9783;SDS011;4931;44.874;-1.092;2023-04-16T09:10:02;3.65;;;1.85;;
9783;SDS011;4931;44.874;-1.092;2023-04-16T09:12:30;3.35;;;1.40;;
9783;SDS011;4931;44.874;-1.092;2023-04-16T09:14:56;3.50;;;1.27;;
9783;SDS011;4931;44.874;-1.092;2023-04-16T09:17:26;2.38;;;1.30;;
9783;SDS011;4931;44.874;-1.092;2023-04-16T09:19:52;3.22;;;1.70;;
9783;SDS011;4931;44.874;-1.092;2023-04-16T09:22:18;3.97;;;1.25;;
9783;SDS011;4931;44.874;-1.092;2023-04-16T09:24:44;4.40;;;1.20;;
9783;SDS011;4931;44.874;-1.092;2023-04-16T09:27:10;9.32;;;1.60;;
9783;SDS011;4931;44.874;-1.092;2023-04-16T09:29:40;2.63;;;1.10;;
9783;SDS011;4931;44.874;-1.092;2023-04-16T09:32:07;5.13;;;1.27;;
9783;SDS011;4931;44.874;-1.092;2023-04-16T09:34:33;3.78;;;1.20;;
9783;SDS011;4931;44.874;-1.092;2023-04-16T09:37:15;6.75;;;5.85;;
9783;SDS011;4931;44.874;-1.092;2023-04-16T09:39:42;15.23;;;13.75;;
9783;SDS011;4931;44.874;-1.092;2023-04-16T09:42:08;3.53;;;1.10;;
9783;SDS011;4931;44.874;-1.092;2023-04-16T09:44:37;3.17;;;1.25;;
9783;SDS011;4931;44.874;-1.092;2023-04-16T09:47:06;3.03;;;1.38;;
9783;SDS011;4931;44.874;-1.092;2023-04-16T09:49:33;2.58;;;1.10;;
9783;SDS011;4931;44.874;-1.092;2023-04-16T09:52:03;2.35;;;1.30;;
9783;SDS011;4931;44.874;-1.092;2023-04-16T09:54:36;4.07;;;1.40;;
9783;SDS011;4931;44.874;-1.092;2023-04-16T09:57:01;3.92;;;1.40;;
9783;SDS011;4931;44.874;-1.092;2023-04-16T09:59:29;2.85;;;1.40;;
9783;SDS011;4931;44.874;-1.092;2023-04-16T10:01:58;2.70;;;1.00;;
9783;SDS011;4931;44.874;-1.092;2023-04-16T10:04:24;2.28;;;1.00;;
9783;SDS011;4931;44.874;-1.092;2023-04-16T10:07:01;3.00;;;1.45;;
9783;SDS011;4931;44.874;-1.092;2023-04-16T10:09:35;3.17;;;1.33;;
9783;SDS011;4931;44.874;-1.092;2023-04-16T10:12:02;1.70;;;1.20;;
9783;SDS011;4931;44.874;-1.092;2023-04-16T10:14:28;3.00;;;1.15;;
9783;SDS011;4931;44.874;-1.092;2023-04-16T10:16:57;4.47;;;0.95;;
9783;SDS011;4931;44.874;-1.092;2023-04-16T10:19:23;2.13;;;1.00;;
9783;SDS011;4931;44.874;-1.092;2023-04-16T10:21:49;2.63;;;1.10;;
9783;SDS011;4931;44.874;-1.092;2023-04-16T10:24:15;4.70;;;1.40;;
9783;SDS011;4931;44.874;-1.092;2023-04-16T10:26:42;4.28;;;1.23;;
9783;SDS011;4931;44.874;-1.092;2023-04-16T10:29:10;3.80;;;1.20;;
9783;SDS011;4931;44.874;-1.092;2023-04-16T10:31:36;5.53;;;1.10;;
9783;SDS011;4931;44.874;-1.092;2023-04-16T10:34:03;2.75;;;1.20;;
9783;SDS011;4931;44.874;-1.092;2023-04-16T10:36:34;3.35;;;1.20;;
9783;SDS011;4931;44.874;-1.092;2023-04-16T10:39:01;3.60;;;1.08;;
9783;SDS011;4931;44.874;-1.092;2023-04-16T10:41:27;3.28;;;1.10;;
9783;SDS011;4931;44.874;-1.092;2023-04-16T10:44:02;2.25;;;1.35;;
9783;SDS011;4931;44.874;-1.092;2023-04-16T10:46:36;3.25;;;1.13;;
9783;SDS011;4931;44.874;-1.092;2023-04-16T10:51:42;4.28;;;1.20;;
9783;SDS011;4931;44.874;-1.092;2023-04-16T10:56:43;3.25;;;1.17;;
9783;SDS011;4931;44.874;-1.092;2023-04-16T10:59:10;4.65;;;1.33;;
9783;SDS011;4931;44.874;-1.092;2023-04-16T11:01:43;3.00;;;1.40;;
9783;SDS011;4931;44.874;-1.092;2023-04-16T11:12:13;3.30;;;1.15;;
9783;SDS011;4931;44.874;-1.092;2023-04-16T11:14:40;2.60;;;1.20;;
9783;SDS011;4931;44.874;-1.092;2023-04-16T11:17:06;2.08;;;1.10;;
9783;SDS011;4931;44.874;-1.092;2023-04-16T11:19:34;3.03;;;1.23;;
9783;SDS011;4931;44.874;-1.092;2023-04-16T11:22:01;6.00;;;3.28;;
9783;SDS011;4931;44.874;-1.092;2023-04-16T11:24:30;2.25;;;0.93;;
9783;SDS011;4931;44.874;-1.092;2023-04-16T11:26:56;3.15;;;0.90;;
9783;SDS011;4931;44.874;-1.092;2023-04-16T11:29:22;2.35;;;1.00;;
9783;SDS011;4931;44.874;-1.092;2023-04-16T11:31:51;3.25;;;2.20;;
9783;SDS011;4931;44.874;-1.092;2023-04-16T11:34:18;5.85;;;1.90;;
9783;SDS011;4931;44.874;-1.092;2023-04-16T11:36:48;5.93;;;3.40;;
9783;SDS011;4931;44.874;-1.092;2023-04-16T11:39:15;4.38;;;2.17;;
9783;SDS011;4931;44.874;-1.092;2023-04-16T11:41:44;2.58;;;1.35;;
9783;SDS011;4931;44.874;-1.092;2023-04-16T11:44:22;3.65;;;1.08;;
9783;SDS011;4931;44.874;-1.092;2023-04-16T11:46:49;13.30;;;7.95;;
9783;SDS011;4931;44.874;-1.092;2023-04-16T11:49:15;4.10;;;1.92;;
9783;SDS011;4931;44.874;-1.092;2023-04-16T11:51:44;2.03;;;1.35;;
9783;SDS011;4931;44.874;-1.092;2023-04-16T11:54:21;4.22;;;1.48;;
9783;SDS011;4931;44.874;-1.092;2023-04-16T11:56:48;1.05;;;0.85;;
9783;SDS011;4931;44.874;-1.092;2023-04-16T11:59:18;19.95;;;13.15;;
9783;SDS011;4931;44.874;-1.092;2023-04-16T12:04:15;9.35;;;3.63;;
9783;SDS011;4931;44.874;-1.092;2023-04-16T12:09:34;4.00;;;1.00;;
9783;SDS011;4931;44.874;-1.092;2023-04-16T12:12:01;6.53;;;2.92;;
9783;SDS011;4931;44.874;-1.092;2023-04-16T12:14:27;1.90;;;0.82;;
9783;SDS011;4931;44.874;-1.092;2023-04-16T12:16:54;1.40;;;0.80;;
9783;SDS011;4931;44.874;-1.092;2023-04-16T12:19:19;2.65;;;1.40;;
9783;SDS011;4931;44.874;-1.092;2023-04-16T12:21:46;2.00;;;1.00;;
9783;SDS011;4931;44.874;-1.092;2023-04-16T12:24:15;2.28;;;1.10;;
9783;SDS011;4931;44.874;-1.092;2023-04-16T12:29:23;0.95;;;0.80;;
9783;SDS011;4931;44.874;-1.092;2023-04-16T12:31:51;1.67;;;1.02;;
9783;SDS011;4931;44.874;-1.092;2023-04-16T12:34:18;2.55;;;0.93;;
9783;SDS011;4931;44.874;-1.092;2023-04-16T12:36:46;2.10;;;1.20;;
9783;SDS011;4931;44.874;-1.092;2023-04-16T12:39:13;3.47;;;1.20;;
9783;SDS011;4931;44.874;-1.092;2023-04-16T12:41:40;2.35;;;1.45;;
9783;SDS011;4931;44.874;-1.092;2023-04-16T12:44:15;7.50;;;4.07;;
9783;SDS011;4931;44.874;-1.092;2023-04-16T12:46:42;4.55;;;1.40;;
9783;SDS011;4931;44.874;-1.092;2023-04-16T12:49:08;3.15;;;1.38;;
9783;SDS011;4931;44.874;-1.092;2023-04-16T12:51:35;3.40;;;1.00;;
9783;SDS011;4931;44.874;-1.092;2023-04-16T12:54:03;4.75;;;1.35;;
9783;SDS011;4931;44.874;-1.092;2023-04-16T12:56:30;4.15;;;1.30;;
9783;SDS011;4931;44.874;-1.092;2023-04-16T12:58:55;3.63;;;1.20;;
9783;SDS011;4931;44.874;-1.092;2023-04-16T13:01:21;3.17;;;1.40;;
9783;SDS011;4931;44.874;-1.092;2023-04-16T13:03:47;4.05;;;1.38;;
9783;SDS011;4931;44.874;-1.092;2023-04-16T13:06:14;3.85;;;1.90;;
9783;SDS011;4931;44.874;-1.092;2023-04-16T13:08:40;2.63;;;2.00;;
9783;SDS011;4931;44.874;-1.092;2023-04-16T13:11:08;3.08;;;1.20;;
9783;SDS011;4931;44.874;-1.092;2023-04-16T13:13:33;5.80;;;1.58;;
9783;SDS011;4931;44.874;-1.092;2023-04-16T13:15:59;5.90;;;1.70;;
9783;SDS011;4931;44.874;-1.092;2023-04-16T13:18:25;4.70;;;1.35;;
9783;SDS011;4931;44.874;-1.092;2023-04-16T13:20:52;2.90;;;1.05;;
9783;SDS011;4931;44.874;-1.092;2023-04-16T13:23:18;4.20;;;1.48;;
9783;SDS011;4931;44.874;-1.092;2023-04-16T13:25:43;3.95;;;1.45;;
9783;SDS011;4931;44.874;-1.092;2023-04-16T13:28:09;8.32;;;3.28;;
9783;SDS011;4931;44.874;-1.092;2023-04-16T13:30:34;5.28;;;1.50;;
9783;SDS011;4931;44.874;-1.092;2023-04-16T13:33:00;4.70;;;1.90;;
9783;SDS011;4931;44.874;-1.092;2023-04-16T13:35:26;5.03;;;1.33;;
9783;SDS011;4931;44.874;-1.092;2023-04-16T13:37:51;3.97;;;1.25;;
9783;SDS011;4931;44.874;-1.092;2023-04-16T13:40:17;3.58;;;1.80;;
9783;SDS011;4931;44.874;-1.092;2023-04-16T13:42:42;3.45;;;1.30;;
9783;SDS011;4931;44.874;-1.092;2023-04-16T13:45:08;5.82;;;1.15;;
9783;SDS011;4931;44.874;-1.092;2023-04-16T13:47:34;5.22;;;1.55;;
9783;SDS011;4931;44.874;-1.092;2023-04-16T13:50:00;6.97;;;1.42;;
9783;SDS011;4931;44.874;-1.092;2023-04-16T13:52:26;6.47;;;1.40;;
9783;SDS011;4931;44.874;-1.092;2023-04-16T13:54:51;3.55;;;1.40;;
9783;SDS011;4931;44.874;-1.092;2023-04-16T13:57:17;4.75;;;1.40;;
9783;SDS011;4931;44.874;-1.092;2023-04-16T13:59:43;4.70;;;1.40;;
9783;SDS011;4931;44.874;-1.092;2023-04-16T14:02:09;6.00;;;1.40;;
9783;SDS011;4931;44.874;-1.092;2023-04-16T14:04:35;5.05;;;1.90;;
9783;SDS011;4931;44.874;-1.092;2023-04-16T14:07:01;4.13;;;1.50;;
9783;SDS011;4931;44.874;-1.092;2023-04-16T14:09:26;7.35;;;2.05;;
9783;SDS011;4931;44.874;-1.092;2023-04-16T14:11:52;5.10;;;1.55;;
9783;SDS011;4931;44.874;-1.092;2023-04-16T14:14:17;7.57;;;1.60;;
9783;SDS011;4931;44.874;-1.092;2023-04-16T14:16:43;4.90;;;1.70;;
9783;SDS011;4931;44.874;-1.092;2023-04-16T14:19:09;6.13;;;1.70;;
9783;SDS011;4931;44.874;-1.092;2023-04-16T14:21:34;4.10;;;1.40;;
9783;SDS011;4931;44.874;-1.092;2023-04-16T14:24:00;5.80;;;1.50;;
9783;SDS011;4931;44.874;-1.092;2023-04-16T14:26:25;3.55;;;1.30;;
9783;SDS011;4931;44.874;-1.092;2023-04-16T14:28:50;5.63;;;1.80;;
9783;SDS011;4931;44.874;-1.092;2023-04-16T14:31:16;5.03;;;1.38;;
9783;SDS011;4931;44.874;-1.092;2023-04-16T14:33:42;6.35;;;1.73;;
9783;SDS011;4931;44.874;-1.092;2023-04-16T14:36:08;4.97;;;1.35;;
9783;SDS011;4931;44.874;-1.092;2023-04-16T14:38:34;6.00;;;1.58;;
9783;SDS011;4931;44.874;-1.092;2023-04-16T14:40:59;6.75;;;1.65;;
9783;SDS011;4931;44.874;-1.092;2023-04-16T14:43:25;6.43;;;1.60;;
9783;SDS011;4931;44.874;-1.092;2023-04-16T14:45:51;5.75;;;1.80;;
9783;SDS011;4931;44.874;-1.092;2023-04-16T14:48:17;3.90;;;1.30;;
9783;SDS011;4931;44.874;-1.092;2023-04-16T14:50:42;5.68;;;2.40;;
9783;SDS011;4931;44.874;-1.092;2023-04-16T14:53:09;6.88;;;1.95;;
9783;SDS011;4931;44.874;-1.092;2023-04-16T14:55:35;5.50;;;1.58;;
9783;SDS011;4931;44.874;-1.092;2023-04-16T14:58:01;7.80;;;1.25;;
9783;SDS011;4931;44.874;-1.092;2023-04-16T15:00:26;3.30;;;1.75;;
9783;SDS011;4931;44.874;-1.092;2023-04-16T15:02:53;5.80;;;1.80;;
9783;SDS011;4931;44.874;-1.092;2023-04-16T15:05:18;3.75;;;1.73;;
9783;SDS011;4931;44.874;-1.092;2023-04-16T15:07:44;5.93;;;1.40;;
9783;SDS011;4931;44.874;-1.092;2023-04-16T15:10:10;6.90;;;1.50;;